Time;durP1;ratioP1;P1;durP2;ratioP2;P2;SDS_P1;SDS_P2;PMS_P1;PMS_P2;Temp;Humidity;BMP_temperature;BMP_pressure;BME280_temperature;BME280_humidity;BME280_pressure;Samples;Min_cycle;Max_cycle;Signal;HPM_P1;HPM_P2
2023/06/24 00:01:14;;;;;;;2.38;1.80;;;;;;;;;;10367395;28;20049;-89
2023/06/24 00:06:19;;;;;;;1.80;1.60;;;;;;;;;;10375886;28;20060;-89
2023/06/24 00:11:22;;;;;;;4.05;1.70;;;;;;;;;;10382346;28;20100;-89
2023/06/24 00:16:28;;;;;;;1.83;1.50;;;;;;;;;;10360553;28;20152;-89
2023/06/24 00:21:32;;;;;;;1.63;1.52;;;;;;;;;;10389212;28;20087;-91
2023/06/24 00:26:35;;;;;;;3.90;1.80;;;;;;;;;;10399792;28;20049;-89
2023/06/24 00:31:40;;;;;;;1.83;1.63;;;;;;;;;;10358336;28;20092;-89
2023/06/24 00:36:46;;;;;;;2.90;1.50;;;;;;;;;;10356270;28;20056;-89
2023/06/24 00:41:50;;;;;;;2.25;1.80;;;;;;;;;;10383744;28;20707;-89
2023/06/24 00:46:56;;;;;;;4.40;2.05;;;;;;;;;;10369262;28;20432;-91
2023/06/24 00:52:00;;;;;;;2.57;2.10;;;;;;;;;;10380558;28;20262;-92
2023/06/24 00:57:05;;;;;;;2.08;1.80;;;;;;;;;;10358809;28;20386;-90
2023/06/24 01:02:10;;;;;;;2.25;1.75;;;;;;;;;;10394500;28;20052;-90
2023/06/24 01:07:15;;;;;;;2.43;1.70;;;;;;;;;;10365299;28;20073;-91
2023/06/24 01:12:19;;;;;;;1.80;1.58;;;;;;;;;;10391771;28;20497;-90
2023/06/24 01:17:29;;;;;;;2.17;1.88;;;;;;;;;;10381676;28;20100;-90
2023/06/24 01:22:59;;;;;;;2.35;1.70;;;;;;;;;;10373519;28;20570;-93
2023/06/24 01:28:24;;;;;;;2.70;2.10;;;;;;;;;;10400370;28;22000;-89
2023/06/24 01:33:38;;;;;;;2.10;1.77;;;;;;;;;;10381171;28;20053;-89
2023/06/24 01:38:48;;;;;;;2.92;1.90;;;;;;;;;;10370693;28;20054;-89
2023/06/24 01:43:53;;;;;;;2.03;1.80;;;;;;;;;;10386448;28;20053;-90
2023/06/24 01:49:03;;;;;;;1.80;1.70;;;;;;;;;;10391707;28;20533;-89
2023/06/24 01:54:12;;;;;;;1.77;1.63;;;;;;;;;;10375143;28;20049;-90
2023/06/24 01:59:20;;;;;;;2.95;1.83;;;;;;;;;;10345755;28;20077;-90
2023/06/24 02:04:30;;;;;;;3.28;1.90;;;;;;;;;;10376893;28;20062;-90
2023/06/24 02:09:35;;;;;;;2.75;1.88;;;;;;;;;;10363142;28;20504;-91
2023/06/24 02:14:41;;;;;;;1.88;1.70;;;;;;;;;;10384137;28;20080;-90
2023/06/24 02:19:49;;;;;;;1.98;1.60;;;;;;;;;;10360574;28;20046;-92
2023/06/24 02:24:55;;;;;;;6.88;1.90;;;;;;;;;;10388664;28;20050;-90
2023/06/24 02:30:03;;;;;;;1.95;1.58;;;;;;;;;;10356425;28;20573;-91
2023/06/24 02:35:11;;;;;;;1.80;1.50;;;;;;;;;;10390607;28;20053;-93
2023/06/24 02:40:16;;;;;;;3.20;1.63;;;;;;;;;;10358338;28;20138;-90
2023/06/24 02:45:21;;;;;;;2.22;2.00;;;;;;;;;;10463352;23;20476;-82
2023/06/24 02:50:27;;;;;;;1.80;1.65;;;;;;;;;;10433699;28;20053;-83
2023/06/24 02:55:33;;;;;;;2.28;1.63;;;;;;;;;;10410516;28;20698;-82
2023/06/24 03:00:39;;;;;;;1.90;1.58;;;;;;;;;;10425123;28;20049;-82
2023/06/24 03:05:48;;;;;;;3.55;1.90;;;;;;;;;;10434568;28;20053;-82
2023/06/24 03:10:52;;;;;;;2.75;1.60;;;;;;;;;;10416594;28;20041;-83
2023/06/24 03:15:58;;;;;;;2.58;1.83;;;;;;;;;;10434267;28;20076;-82
2023/06/24 03:21:07;;;;;;;2.60;1.80;;;;;;;;;;10416278;28;20065;-83
2023/06/24 03:26:10;;;;;;;2.20;1.90;;;;;;;;;;10432518;28;20152;-83
2023/06/24 03:31:15;;;;;;;2.05;1.75;;;;;;;;;;10438876;28;20118;-82
2023/06/24 03:36:20;;;;;;;4.75;1.90;;;;;;;;;;10441589;28;20056;-82
2023/06/24 03:41:26;;;;;;;2.33;1.85;;;;;;;;;;10431240;28;20107;-82
2023/06/24 03:46:32;;;;;;;1.40;1.30;;;;;;;;;;10441076;28;20794;-83
2023/06/24 03:51:37;;;;;;;2.25;1.63;;;;;;;;;;10439558;28;20128;-82
2023/06/24 03:56:41;;;;;;;2.83;1.80;;;;;;;;;;10423898;28;20515;-82
2023/06/24 04:01:44;;;;;;;2.08;1.80;;;;;;;;;;10420622;28;20079;-83
2023/06/24 04:06:49;;;;;;;2.53;1.75;;;;;;;;;;10434241;28;20060;-83
2023/06/24 04:11:53;;;;;;;2.50;1.88;;;;;;;;;;10425745;28;20471;-82
2023/06/24 04:16:56;;;;;;;3.88;1.77;;;;;;;;;;10434727;28;20049;-83
2023/06/24 04:22:01;;;;;;;3.63;1.90;;;;;;;;;;10406505;28;20115;-83
2023/06/24 04:27:06;;;;;;;4.55;1.90;;;;;;;;;;10407459;28;20046;-83
2023/06/24 04:32:10;;;;;;;2.43;1.60;;;;;;;;;;10435730;28;20057;-83
2023/06/24 04:37:15;;;;;;;2.83;1.70;;;;;;;;;;10422517;28;20045;-82
2023/06/24 04:42:19;;;;;;;3.50;1.83;;;;;;;;;;10437923;28;20110;-82
2023/06/24 04:47:23;;;;;;;2.25;1.42;;;;;;;;;;10431888;28;20052;-83
2023/06/24 04:52:28;;;;;;;3.28;1.38;;;;;;;;;;10432290;28;20446;-82
2023/06/24 04:57:33;;;;;;;2.08;1.67;;;;;;;;;;10412826;28;20630;-83
2023/06/24 05:02:36;;;;;;;1.95;1.17;;;;;;;;;;10440616;28;20067;-83
2023/06/24 05:07:41;;;;;;;2.20;1.50;;;;;;;;;;10430546;28;20053;-82
2023/06/24 05:12:44;;;;;;;1.45;1.20;;;;;;;;;;10421786;28;20086;-82
2023/06/24 05:17:48;;;;;;;1.40;1.30;;;;;;;;;;10438785;28;20060;-83
2023/06/24 05:22:54;;;;;;;2.67;1.30;;;;;;;;;;10422239;28;20053;-83
2023/06/24 05:27:57;;;;;;;1.60;1.50;;;;;;;;;;10438714;28;20053;-83
2023/06/24 05:33:00;;;;;;;1.50;1.40;;;;;;;;;;10420814;28;20090;-82
2023/06/24 05:38:05;;;;;;;2.80;1.30;;;;;;;;;;10432944;28;20048;-83
2023/06/24 05:43:09;;;;;;;1.58;1.33;;;;;;;;;;10423119;28;20069;-83
2023/06/24 05:48:14;;;;;;;2.38;1.30;;;;;;;;;;10437778;28;20045;-83
2023/06/24 05:53:19;;;;;;;1.50;1.40;;;;;;;;;;10425663;28;20423;-83
2023/06/24 05:58:22;;;;;;;1.25;1.08;;;;;;;;;;10402831;28;20049;-83
2023/06/24 06:03:26;;;;;;;1.50;1.40;;;;;;;;;;10421335;28;20057;-83
2023/06/24 06:08:31;;;;;;;2.47;1.88;;;;;;;;;;10423957;28;20057;-83
2023/06/24 06:13:34;;;;;;;2.67;1.95;;;;;;;;;;10433395;28;20099;-82
2023/06/24 06:18:38;;;;;;;2.38;1.35;;;;;;;;;;10435405;28;20053;-83
2023/06/24 06:23:43;;;;;;;1.95;1.60;;;;;;;;;;10419760;28;20045;-83
2023/06/24 06:28:47;;;;;;;1.67;1.20;;;;;;;;;;10427040;28;20131;-82
2023/06/24 06:33:51;;;;;;;2.20;1.42;;;;;;;;;;10434558;28;20041;-83
2023/06/24 06:38:56;;;;;;;2.28;1.48;;;;;;;;;;10420922;28;20045;-83
2023/06/24 06:43:59;;;;;;;2.22;1.45;;;;;;;;;;10416173;28;20052;-83
2023/06/24 06:49:03;;;;;;;2.35;1.23;;;;;;;;;;10427825;28;20076;-82
2023/06/24 06:54:08;;;;;;;4.18;1.50;;;;;;;;;;10419312;28;20077;-82
2023/06/24 06:59:11;;;;;;;1.35;1.25;;;;;;;;;;10427785;28;20049;-83
2023/06/24 07:04:15;;;;;;;1.90;1.63;;;;;;;;;;10406136;28;20506;-83
2023/06/24 07:09:20;;;;;;;2.17;1.98;;;;;;;;;;10429999;28;20068;-82
2023/06/24 07:14:23;;;;;;;4.17;1.93;;;;;;;;;;10420325;28;20057;-83
2023/06/24 07:19:27;;;;;;;1.63;1.48;;;;;;;;;;10425717;28;20056;-83
2023/06/24 07:24:32;;;;;;;2.30;1.52;;;;;;;;;;10443641;28;20053;-82
2023/06/24 07:29:36;;;;;;;1.50;1.35;;;;;;;;;;10425550;28;20045;-83
2023/06/24 07:34:39;;;;;;;1.80;1.50;;;;;;;;;;10427862;28;20053;-83
2023/06/24 07:39:44;;;;;;;2.25;1.45;;;;;;;;;;10409097;28;20127;-82
2023/06/24 07:44:47;;;;;;;1.38;1.23;;;;;;;;;;10434142;28;20140;-83
2023/06/24 07:49:51;;;;;;;1.67;1.15;;;;;;;;;;10416694;28;20397;-82
2023/06/24 07:54:56;;;;;;;2.05;1.50;;;;;;;;;;10425692;28;20722;-83
2023/06/24 07:59:59;;;;;;;4.00;2.17;;;;;;;;;;10434436;28;20050;-82
2023/06/24 08:05:03;;;;;;;2.05;1.75;;;;;;;;;;10425127;28;20087;-83
2023/06/24 08:10:08;;;;;;;1.23;1.13;;;;;;;;;;10437601;28;20054;-82
2023/06/24 08:15:12;;;;;;;2.28;1.73;;;;;;;;;;10424012;28;20490;-83
2023/06/24 08:20:15;;;;;;;3.13;2.45;;;;;;;;;;10437668;28;20050;-82
2023/06/24 08:25:23;;;;;;;3.00;1.90;;;;;;;;;;10420413;28;20049;-83
2023/06/24 08:30:27;;;;;;;5.88;3.70;;;;;;;;;;10431759;28;20156;-83
2023/06/24 08:35:30;;;;;;;2.90;2.22;;;;;;;;;;10442186;28;20864;-83
2023/06/24 08:40:35;;;;;;;3.05;2.13;;;;;;;;;;10425617;28;20037;-83
2023/06/24 08:45:39;;;;;;;3.95;3.20;;;;;;;;;;10423479;28;20519;-83
2023/06/24 08:50:47;;;;;;;2.15;1.95;;;;;;;;;;10413448;28;20140;-82
2023/06/24 08:55:56;;;;;;;2.08;1.70;;;;;;;;;;10440040;28;20060;-82
2023/06/24 09:01:00;;;;;;;2.63;1.77;;;;;;;;;;10422688;28;20048;-83
2023/06/24 09:06:03;;;;;;;1.92;1.80;;;;;;;;;;10430202;28;20064;-83
2023/06/24 09:11:10;;;;;;;2.88;2.20;;;;;;;;;;10416471;28;20071;-83
2023/06/24 09:16:15;;;;;;;3.58;2.22;;;;;;;;;;10439804;28;20519;-82
2023/06/24 09:21:26;;;;;;;2.75;2.50;;;;;;;;;;10429492;28;20144;-82
2023/06/24 09:26:31;;;;;;;2.05;1.80;;;;;;;;;;10417551;28;20052;-82
2023/06/24 09:31:34;;;;;;;1.65;1.55;;;;;;;;;;10403892;28;20081;-82
2023/06/24 09:36:43;;;;;;;1.70;1.45;;;;;;;;;;10417856;28;20064;-83
2023/06/24 09:41:51;;;;;;;1.90;1.52;;;;;;;;;;10415740;28;20102;-82
2023/06/24 09:46:55;;;;;;;1.85;1.48;;;;;;;;;;10419590;28;20064;-82
2023/06/24 09:52:00;;;;;;;3.30;1.70;;;;;;;;;;10412362;28;20056;-82
2023/06/24 09:57:09;;;;;;;1.30;1.20;;;;;;;;;;10435214;28;20560;-82
2023/06/24 10:02:17;;;;;;;1.70;1.40;;;;;;;;;;10433569;28;20041;-83
2023/06/24 10:07:21;;;;;;;3.63;2.58;;;;;;;;;;10417789;28;20607;-82
2023/06/24 10:12:27;;;;;;;3.03;2.40;;;;;;;;;;10402426;28;20048;-83
2023/06/24 10:17:31;;;;;;;1.65;1.55;;;;;;;;;;10418468;28;20049;-82
2023/06/24 10:22:36;;;;;;;2.22;2.03;;;;;;;;;;10434626;28;20498;-82
2023/06/24 10:27:44;;;;;;;1.90;1.77;;;;;;;;;;10419044;28;20432;-82
2023/06/24 10:32:53;;;;;;;3.13;2.28;;;;;;;;;;10424473;28;20044;-82
2023/06/24 10:37:59;;;;;;;2.25;1.63;;;;;;;;;;10415214;28;20049;-83
2023/06/24 10:43:16;;;;;;;1.73;1.45;;;;;;;;;;10421305;28;20727;-82
2023/06/24 10:48:20;;;;;;;1.45;1.23;;;;;;;;;;10421866;28;20121;-82
2023/06/24 10:53:24;;;;;;;2.30;1.70;;;;;;;;;;10429875;28;20076;-82
2023/06/24 10:58:38;;;;;;;1.98;1.65;;;;;;;;;;10433264;28;20040;-83
2023/06/24 11:03:43;;;;;;;1.73;1.52;;;;;;;;;;10427606;28;20045;-82
2023/06/24 11:08:46;;;;;;;;;;;;;;;;;;10417998;28;20053;-83
2023/06/24 11:13:51;;;;;;;2.57;2.17;;;;;;;;;;10428380;28;19930;-83
2023/06/24 11:18:55;;;;;;;1.50;1.40;;;;;;;;;;10426662;28;20646;-83
2023/06/24 11:24:02;;;;;;;1.83;1.63;;;;;;;;;;10426903;28;20049;-83
2023/06/24 11:29:12;;;;;;;1.92;1.70;;;;;;;;;;10425594;28;20497;-83
2023/06/24 11:34:15;;;;;;;2.85;2.10;;;;;;;;;;10417812;28;20056;-83
2023/06/24 11:39:31;;;;;;;1.73;1.60;;;;;;;;;;10418972;28;20049;-83
2023/06/24 11:44:44;;;;;;;1.58;1.48;;;;;;;;;;10409279;28;20622;-83
2023/06/24 11:49:51;;;;;;;1.33;1.23;;;;;;;;;;10420941;28;20041;-83
2023/06/24 11:54:54;;;;;;;2.47;1.67;;;;;;;;;;10442353;28;20041;-83
2023/06/24 11:59:59;;;;;;;1.73;1.60;;;;;;;;;;10415095;28;20071;-84
2023/06/24 12:05:04;;;;;;;2.05;1.77;;;;;;;;;;10424069;28;20498;-83
2023/06/24 12:10:09;;;;;;;3.10;2.60;;;;;;;;;;10433088;28;20104;-83
2023/06/24 12:15:14;;;;;;;2.40;1.88;;;;;;;;;;10441869;28;20158;-83
2023/06/24 12:20:18;;;;;;;2.33;1.92;;;;;;;;;;10437813;28;20060;-83
2023/06/24 12:25:22;;;;;;;1.73;1.40;;;;;;;;;;10416888;28;20079;-83
2023/06/24 12:30:29;;;;;;;1.60;1.30;;;;;;;;;;10422789;28;20280;-83
2023/06/24 12:35:34;;;;;;;2.45;2.10;;;;;;;;;;10423175;28;20276;-84
2023/06/24 12:40:39;;;;;;;1.75;1.45;;;;;;;;;;10415413;28;20090;-83
2023/06/24 12:45:44;;;;;;;2.28;2.03;;;;;;;;;;10431254;28;20065;-83
2023/06/24 12:50:52;;;;;;;3.58;1.52;;;;;;;;;;10419210;28;20072;-83
2023/06/24 12:55:56;;;;;;;3.13;1.52;;;;;;;;;;10440583;28;20072;-83
2023/06/24 13:01:01;;;;;;;1.30;1.20;;;;;;;;;;10430852;28;20049;-82
2023/06/24 13:06:04;;;;;;;1.98;1.80;;;;;;;;;;10423069;28;20041;-83
2023/06/24 13:11:08;;;;;;;1.90;1.63;;;;;;;;;;10432545;28;20547;-83
2023/06/24 13:16:13;;;;;;;1.35;1.25;;;;;;;;;;10396870;28;20096;-83
2023/06/24 13:21:17;;;;;;;2.17;1.40;;;;;;;;;;10430527;28;20053;-83
2023/06/24 13:26:20;;;;;;;1.70;1.40;;;;;;;;;;10415915;28;20075;-83
2023/06/24 13:31:25;;;;;;;3.08;2.13;;;;;;;;;;10420740;28;20079;-83
2023/06/24 13:36:32;;;;;;;2.58;1.50;;;;;;;;;;10437359;28;20048;-84
2023/06/24 13:41:36;;;;;;;2.47;2.03;;;;;;;;;;10417624;28;20049;-82
2023/06/24 13:46:41;;;;;;;1.70;1.60;;;;;;;;;;10417795;28;20029;-83
2023/06/24 13:51:44;;;;;;;2.42;1.98;;;;;;;;;;10411795;28;20479;-83
2023/06/24 13:56:48;;;;;;;1.85;1.50;;;;;;;;;;10436895;28;20044;-83
2023/06/24 14:01:52;;;;;;;1.60;1.50;;;;;;;;;;10418207;28;20041;-83
2023/06/24 14:06:57;;;;;;;1.50;1.40;;;;;;;;;;10429283;28;20041;-82
2023/06/24 14:12:02;;;;;;;1.58;1.35;;;;;;;;;;10430086;28;20052;-83
2023/06/24 14:17:11;;;;;;;2.08;1.85;;;;;;;;;;10412694;28;20045;-83
2023/06/24 14:22:14;;;;;;;2.28;1.65;;;;;;;;;;10405664;28;20084;-83
2023/06/24 14:27:21;;;;;;;1.83;1.58;;;;;;;;;;10429166;28;20037;-82
2023/06/24 14:32:26;;;;;;;2.25;1.83;;;;;;;;;;10411149;28;20528;-82
2023/06/24 14:37:30;;;;;;;3.90;2.00;;;;;;;;;;10429786;28;20127;-83
2023/06/24 14:42:36;;;;;;;;;;;;;;;;;;10427978;28;20523;-83
2023/06/24 14:47:41;;;;;;;2.80;2.15;;;;;;;;;;10430184;28;19974;-83
2023/06/24 14:52:44;;;;;;;;;;;;;;;;;;10420003;28;20037;-83
2023/06/24 14:57:48;;;;;;;3.05;2.75;;;;;;;;;;10426835;28;19928;-83
2023/06/24 15:02:52;;;;;;;4.55;2.20;;;;;;;;;;10436618;28;20045;-85
2023/06/24 15:07:56;;;;;;;;;;;;;;;;;;10427870;28;20135;-84
2023/06/24 15:12:59;;;;;;;2.38;2.17;;;;;;;;;;10428248;28;19944;-84
2023/06/24 15:18:05;;;;;;;2.38;1.98;;;;;;;;;;10434131;28;20103;-83
2023/06/24 15:23:08;;;;;;;1.90;1.67;;;;;;;;;;10430319;28;20697;-83
2023/06/24 15:28:12;;;;;;;2.67;2.30;;;;;;;;;;10441830;28;20420;-83
2023/06/24 15:33:17;;;;;;;2.33;1.77;;;;;;;;;;10441960;28;20052;-83
2023/06/24 15:38:20;;;;;;;;;;;;;;;;;;10416913;28;20051;-83
2023/06/24 15:43:24;;;;;;;1.65;1.35;;;;;;;;;;10429574;28;19921;-83
2023/06/24 15:48:29;;;;;;;1.35;0.95;;;;;;;;;;10440332;28;20077;-83
2023/06/24 15:53:32;;;;;;;2.75;1.00;;;;;;;;;;10436014;28;20458;-83
2023/06/24 15:58:36;;;;;;;1.55;1.30;;;;;;;;;;10414924;28;20045;-83
2023/06/24 16:03:41;;;;;;;1.30;1.20;;;;;;;;;;10420923;28;20041;-89
2023/06/24 16:08:44;;;;;;;2.72;1.80;;;;;;;;;;10433312;28;20045;-87
2023/06/24 16:13:48;;;;;;;2.53;1.73;;;;;;;;;;10433095;28;20044;-85
2023/06/24 16:18:53;;;;;;;2.30;2.10;;;;;;;;;;10434233;28;20099;-84
2023/06/24 16:23:56;;;;;;;;;;;;;;;;;;10430033;28;20053;-85
2023/06/24 16:29:00;;;;;;;1.58;1.48;;;;;;;;;;10429428;28;19921;-85
2023/06/24 16:34:07;;;;;;;1.40;1.30;;;;;;;;;;10440457;28;20041;-89
2023/06/24 16:39:15;;;;;;;1.40;1.20;;;;;;;;;;10423818;28;20060;-85
2023/06/24 16:44:19;;;;;;;1.40;1.30;;;;;;;;;;10430909;28;20492;-85
2023/06/24 16:49:24;;;;;;;2.78;1.60;;;;;;;;;;10445386;28;20048;-87
2023/06/24 16:54:28;;;;;;;1.48;1.38;;;;;;;;;;10440687;28;20049;-84
2023/06/24 16:59:33;;;;;;;1.50;1.40;;;;;;;;;;10434827;28;20041;-83
2023/06/24 17:04:38;;;;;;;1.50;1.40;;;;;;;;;;10431608;28;20103;-83
2023/06/24 17:09:41;;;;;;;;;;;;;;;;;;10429130;28;20111;-83
2023/06/24 17:14:45;;;;;;;1.38;1.15;;;;;;;;;;10434675;28;19983;-86
2023/06/24 17:19:51;;;;;;;1.45;1.20;;;;;;;;;;10400730;28;20109;-85
2023/06/24 17:24:56;;;;;;;1.67;1.40;;;;;;;;;;10370244;28;20124;-83
2023/06/24 17:30:00;;;;;;;2.75;1.60;;;;;;;;;;10387689;28;20053;-83
2023/06/24 17:35:07;;;;;;;2.80;1.87;;;;;;;;;;10378822;28;20743;-83
2023/06/24 17:40:12;;;;;;;1.42;1.33;;;;;;;;;;10389011;28;20083;-83
2023/06/24 17:45:15;;;;;;;1.67;1.57;;;;;;;;;;10378167;28;20041;-83
2023/06/24 17:50:23;;;;;;;1.30;1.13;;;;;;;;;;10378622;28;20054;-83
2023/06/24 17:55:28;;;;;;;1.50;1.40;;;;;;;;;;10396831;28;20045;-83
2023/06/24 18:00:39;;;;;;;1.70;1.60;;;;;;;;;;10372323;28;20089;-83
2023/06/24 18:05:44;;;;;;;1.90;1.40;;;;;;;;;;10391901;28;20508;-83
2023/06/24 18:10:50;;;;;;;1.50;1.40;;;;;;;;;;10380909;28;20053;-83
2023/06/24 18:15:57;;;;;;;1.83;1.38;;;;;;;;;;10371958;28;20046;-83
2023/06/24 18:21:02;;;;;;;1.85;1.48;;;;;;;;;;10384321;28;20463;-83
2023/06/24 18:26:06;;;;;;;1.38;1.20;;;;;;;;;;10394380;28;20041;-83
2023/06/24 18:31:09;;;;;;;1.52;1.42;;;;;;;;;;10377225;28;20081;-83
2023/06/24 18:36:15;;;;;;;1.45;1.35;;;;;;;;;;10377485;28;20048;-83
2023/06/24 18:41:18;;;;;;;1.83;1.52;;;;;;;;;;10370281;28;20057;-83
2023/06/24 18:46:21;;;;;;;1.80;1.40;;;;;;;;;;10368111;28;20073;-83
2023/06/24 18:51:26;;;;;;;1.70;1.42;;;;;;;;;;10373882;28;20092;-83
2023/06/24 18:56:30;;;;;;;3.25;1.55;;;;;;;;;;10379224;28;22284;-83
2023/06/24 19:01:33;;;;;;;1.73;1.58;;;;;;;;;;10385163;28;20087;-83
2023/06/24 19:06:39;;;;;;;1.42;1.33;;;;;;;;;;10403213;28;20045;-84
2023/06/24 19:11:42;;;;;;;3.33;2.00;;;;;;;;;;10378871;28;20068;-83
2023/06/24 19:16:45;;;;;;;2.60;1.45;;;;;;;;;;10403084;28;20041;-82
2023/06/24 19:21:50;;;;;;;1.90;1.75;;;;;;;;;;10401128;28;20052;-83
2023/06/24 19:26:54;;;;;;;3.38;1.73;;;;;;;;;;10401960;28;20042;-83
2023/06/24 19:31:57;;;;;;;2.05;1.85;;;;;;;;;;10401226;28;20440;-83
2023/06/24 19:37:02;;;;;;;3.40;1.95;;;;;;;;;;10401539;28;20048;-83
2023/06/24 19:42:06;;;;;;;2.85;1.75;;;;;;;;;;10394293;28;20041;-83
2023/06/24 19:47:09;;;;;;;2.45;2.00;;;;;;;;;;10385650;28;20423;-83
2023/06/24 19:52:14;;;;;;;2.03;1.83;;;;;;;;;;10393467;28;20041;-83
2023/06/24 19:57:19;;;;;;;4.00;1.93;;;;;;;;;;10386095;28;20790;-82
2023/06/24 20:02:22;;;;;;;2.95;2.08;;;;;;;;;;10386302;28;20080;-83
2023/06/24 20:07:27;;;;;;;2.63;2.05;;;;;;;;;;10401944;28;20041;-83
2023/06/24 20:12:30;;;;;;;2.72;2.03;;;;;;;;;;10393464;28;20076;-82
2023/06/24 20:17:34;;;;;;;2.90;2.40;;;;;;;;;;10383256;28;20049;-83
2023/06/24 20:22:39;;;;;;;2.83;2.15;;;;;;;;;;10400120;28;20566;-83
2023/06/24 20:27:43;;;;;;;2.67;2.17;;;;;;;;;;10350715;28;20119;-83
2023/06/24 20:32:47;;;;;;;2.20;2.00;;;;;;;;;;10386524;28;20651;-83
2023/06/24 20:37:52;;;;;;;4.30;2.53;;;;;;;;;;10372198;28;20053;-82
2023/06/24 20:42:57;;;;;;;2.53;1.97;;;;;;;;;;10511317;23;20104;-90
2023/06/24 20:48:04;;;;;;;2.42;2.22;;;;;;;;;;10397842;28;20037;-90
2023/06/24 20:53:12;;;;;;;2.85;2.17;;;;;;;;;;10357504;28;20046;-90
2023/06/24 20:58:16;;;;;;;5.07;1.98;;;;;;;;;;10332105;28;20065;-90
2023/06/24 21:03:20;;;;;;;2.80;2.22;;;;;;;;;;10364516;28;20054;-89
2023/06/24 21:08:26;;;;;;;3.15;2.63;;;;;;;;;;10389130;28;20045;-88
2023/06/24 21:13:34;;;;;;;2.67;2.08;;;;;;;;;;10386132;28;20455;-88
2023/06/24 21:18:38;;;;;;;3.28;2.30;;;;;;;;;;10382340;28;20050;-87
2023/06/24 21:23:45;;;;;;;;;;;;;;;;;;10398104;28;20116;-87
2023/06/24 21:28:49;;;;;;;;;;;;;;;;;;10360167;28;19920;-88
2023/06/24 21:33:55;;;;;;;2.40;2.17;;;;;;;;;;10355256;28;19921;-88
2023/06/24 21:39:01;;;;;;;2.40;2.15;;;;;;;;;;10360811;28;20057;-88
2023/06/24 21:44:06;;;;;;;2.00;1.80;;;;;;;;;;10377773;28;20080;-88
2023/06/24 21:49:13;;;;;;;3.13;2.30;;;;;;;;;;10375803;28;20151;-88
2023/06/24 21:54:19;;;;;;;3.17;2.10;;;;;;;;;;10344458;28;20151;-88
2023/06/24 21:59:23;;;;;;;2.95;2.42;;;;;;;;;;10362536;28;20064;-89
2023/06/24 22:04:27;;;;;;;2.50;2.30;;;;;;;;;;10335931;28;20050;-88
2023/06/24 22:09:33;;;;;;;2.55;2.35;;;;;;;;;;10362008;28;20136;-89
2023/06/24 22:14:38;;;;;;;2.35;2.15;;;;;;;;;;10379428;28;20140;-88
2023/06/24 22:19:42;;;;;;;3.45;2.17;;;;;;;;;;10365353;28;20048;-88
2023/06/24 22:24:47;;;;;;;3.45;2.30;;;;;;;;;;10354959;28;20092;-88
2023/06/24 22:29:51;;;;;;;3.00;2.35;;;;;;;;;;10371836;28;20674;-88
2023/06/24 22:34:57;;;;;;;2.50;1.95;;;;;;;;;;10374081;28;20046;-88
2023/06/24 22:40:10;;;;;;;2.95;2.33;;;;;;;;;;10384568;28;20052;-89
2023/06/24 22:45:16;;;;;;;3.08;2.42;;;;;;;;;;10359715;28;20045;-88
2023/06/24 22:50:21;;;;;;;2.75;2.20;;;;;;;;;;10340648;28;20104;-88
2023/06/24 22:55:27;;;;;;;2.70;2.28;;;;;;;;;;10319428;28;20058;-88
2023/06/24 23:00:31;;;;;;;2.22;2.03;;;;;;;;;;10306909;28;20063;-89
2023/06/24 23:05:36;;;;;;;2.75;2.30;;;;;;;;;;10318083;28;20054;-88
2023/06/24 23:10:43;;;;;;;2.65;2.42;;;;;;;;;;10338023;28;20669;-89
2023/06/24 23:15:48;;;;;;;2.90;2.40;;;;;;;;;;10369041;28;20077;-90
2023/06/24 23:20:56;;;;;;;4.70;2.20;;;;;;;;;;10352425;28;20054;-90
2023/06/24 23:26:03;;;;;;;2.78;2.20;;;;;;;;;;10384089;28;20054;-94
2023/06/24 23:31:12;;;;;;;2.20;2.00;;;;;;;;;;10376993;28;20052;-91
2023/06/24 23:36:17;;;;;;;3.72;2.50;;;;;;;;;;10354053;28;20128;-90
2023/06/24 23:41:24;;;;;;;2.85;2.30;;;;;;;;;;10350757;28;20075;-93
2023/06/24 23:46:29;;;;;;;2.30;2.10;;;;;;;;;;10361970;28;20105;-90
2023/06/24 23:51:34;;;;;;;3.42;2.47;;;;;;;;;;10394561;28;20060;-90
2023/06/24 23:56:40;;;;;;;3.65;2.20;;;;;;;;;;10380646;28;20077;-95
